sensor_id;sensor_type;location;lat;lon;timestamp;P1;durP1;ratioP1;P2;durP2;ratioP2
3867;SDS011;1949;48.152;11.528;2023-05-29T00:00:23;14.40;;;6.50;;
3867;SDS011;1949;48.152;11.528;2023-05-29T00:02:50;13.40;;;6.23;;
3867;SDS011;1949;48.152;11.528;2023-05-29T00:05:37;13.50;;;6.83;;
3867;SDS011;1949;48.152;11.528;2023-05-29T00:08:17;22.00;;;7.20;;
3867;SDS011;1949;48.152;11.528;2023-05-29T00:11:04;16.50;;;7.13;;
3867;SDS011;1949;48.152;11.528;2023-05-29T00:13:49;13.43;;;6.23;;
3867;SDS011;1949;48.152;11.528;2023-05-29T00:16:21;16.77;;;7.83;;
3867;SDS011;1949;48.152;11.528;2023-05-29T00:19:08;12.20;;;6.90;;
3867;SDS011;1949;48.152;11.528;2023-05-29T00:21:48;15.37;;;7.30;;
3867;SDS011;1949;48.152;11.528;2023-05-29T00:24:33;15.77;;;6.07;;
3867;SDS011;1949;48.152;11.528;2023-05-29T00:26:59;18.63;;;8.20;;
3867;SDS011;1949;48.152;11.528;2023-05-29T00:29:26;16.57;;;6.50;;
3867;SDS011;1949;48.152;11.528;2023-05-29T00:31:52;18.77;;;6.90;;
3867;SDS011;1949;48.152;11.528;2023-05-29T00:34:19;17.63;;;7.73;;
3867;SDS011;1949;48.152;11.528;2023-05-29T00:37:07;17.83;;;7.27;;
3867;SDS011;1949;48.152;11.528;2023-05-29T00:39:53;22.13;;;6.90;;
3867;SDS011;1949;48.152;11.528;2023-05-29T00:42:19;15.03;;;7.03;;
3867;SDS011;1949;48.152;11.528;2023-05-29T00:44:47;12.73;;;6.33;;
3867;SDS011;1949;48.152;11.528;2023-05-29T00:47:14;15.10;;;6.77;;
3867;SDS011;1949;48.152;11.528;2023-05-29T00:50:02;15.30;;;6.87;;
3867;SDS011;1949;48.152;11.528;2023-05-29T00:52:41;16.57;;;7.27;;
3867;SDS011;1949;48.152;11.528;2023-05-29T00:55:24;17.80;;;6.87;;
3867;SDS011;1949;48.152;11.528;2023-05-29T00:58:10;16.13;;;6.70;;
3867;SDS011;1949;48.152;11.528;2023-05-29T01:00:38;18.00;;;8.20;;
3867;SDS011;1949;48.152;11.528;2023-05-29T01:03:06;22.43;;;7.67;;
3867;SDS011;1949;48.152;11.528;2023-05-29T01:05:52;16.53;;;7.40;;
3867;SDS011;1949;48.152;11.528;2023-05-29T01:08:22;12.07;;;6.40;;
3867;SDS011;1949;48.152;11.528;2023-05-29T01:11:22;19.53;;;6.80;;
3867;SDS011;1949;48.152;11.528;2023-05-29T01:13:58;31.30;;;8.20;;
3867;SDS011;1949;48.152;11.528;2023-05-29T01:16:48;12.87;;;6.73;;
3867;SDS011;1949;48.152;11.528;2023-05-29T01:25:11;15.70;;;7.40;;
3867;SDS011;1949;48.152;11.528;2023-05-29T01:28:06;17.40;;;7.10;;
3867;SDS011;1949;48.152;11.528;2023-05-29T01:30:34;18.47;;;7.53;;
3867;SDS011;1949;48.152;11.528;2023-05-29T01:33:07;15.40;;;7.77;;
3867;SDS011;1949;48.152;11.528;2023-05-29T01:35:55;16.03;;;7.20;;
3867;SDS011;1949;48.152;11.528;2023-05-29T01:38:41;20.93;;;7.60;;
3867;SDS011;1949;48.152;11.528;2023-05-29T01:41:08;28.13;;;6.97;;
3867;SDS011;1949;48.152;11.528;2023-05-29T01:43:49;13.50;;;6.87;;
3867;SDS011;1949;48.152;11.528;2023-05-29T01:46:24;17.10;;;7.40;;
3867;SDS011;1949;48.152;11.528;2023-05-29T01:48:52;17.13;;;7.73;;
3867;SDS011;1949;48.152;11.528;2023-05-29T01:51:31;18.03;;;7.73;;
3867;SDS011;1949;48.152;11.528;2023-05-29T01:54:03;19.90;;;7.63;;
3867;SDS011;1949;48.152;11.528;2023-05-29T01:56:45;13.77;;;7.60;;
3867;SDS011;1949;48.152;11.528;2023-05-29T01:59:32;17.20;;;7.20;;
3867;SDS011;1949;48.152;11.528;2023-05-29T02:02:04;19.73;;;8.47;;
3867;SDS011;1949;48.152;11.528;2023-05-29T02:04:54;34.83;;;16.00;;
3867;SDS011;1949;48.152;11.528;2023-05-29T02:07:42;32.00;;;15.30;;
3867;SDS011;1949;48.152;11.528;2023-05-29T02:10:10;19.70;;;10.57;;
3867;SDS011;1949;48.152;11.528;2023-05-29T02:12:57;20.10;;;8.30;;
3867;SDS011;1949;48.152;11.528;2023-05-29T02:15:38;30.53;;;14.27;;
3867;SDS011;1949;48.152;11.528;2023-05-29T02:18:05;25.70;;;11.60;;
3867;SDS011;1949;48.152;11.528;2023-05-29T02:20:34;26.90;;;12.70;;
3867;SDS011;1949;48.152;11.528;2023-05-29T02:23:01;15.33;;;8.43;;
3867;SDS011;1949;48.152;11.528;2023-05-29T02:25:48;12.80;;;6.87;;
3867;SDS011;1949;48.152;11.528;2023-05-29T02:28:14;14.77;;;7.40;;
3867;SDS011;1949;48.152;11.528;2023-05-29T02:31:00;15.33;;;6.57;;
3867;SDS011;1949;48.152;11.528;2023-05-29T02:33:49;13.73;;;7.03;;
3867;SDS011;1949;48.152;11.528;2023-05-29T02:36:15;13.13;;;6.77;;
3867;SDS011;1949;48.152;11.528;2023-05-29T02:38:41;12.90;;;6.37;;
3867;SDS011;1949;48.152;11.528;2023-05-29T02:41:07;14.83;;;7.00;;
3867;SDS011;1949;48.152;11.528;2023-05-29T02:43:34;17.37;;;7.80;;
3867;SDS011;1949;48.152;11.528;2023-05-29T02:46:20;18.30;;;6.90;;
3867;SDS011;1949;48.152;11.528;2023-05-29T02:48:48;12.17;;;6.90;;
3867;SDS011;1949;48.152;11.528;2023-05-29T02:51:18;13.30;;;5.80;;
3867;SDS011;1949;48.152;11.528;2023-05-29T02:53:53;13.80;;;7.80;;
3867;SDS011;1949;48.152;11.528;2023-05-29T02:56:24;11.60;;;5.87;;
3867;SDS011;1949;48.152;11.528;2023-05-29T02:58:53;12.73;;;6.00;;
3867;SDS011;1949;48.152;11.528;2023-05-29T03:01:20;13.83;;;5.97;;
3867;SDS011;1949;48.152;11.528;2023-05-29T03:03:51;15.70;;;7.53;;
3867;SDS011;1949;48.152;11.528;2023-05-29T03:06:27;20.03;;;7.07;;
3867;SDS011;1949;48.152;11.528;2023-05-29T03:09:13;14.43;;;6.70;;
3867;SDS011;1949;48.152;11.528;2023-05-29T03:12:02;15.53;;;7.70;;
3867;SDS011;1949;48.152;11.528;2023-05-29T03:14:46;19.23;;;7.23;;
3867;SDS011;1949;48.152;11.528;2023-05-29T03:17:23;20.37;;;7.00;;
3867;SDS011;1949;48.152;11.528;2023-05-29T03:19:49;18.87;;;6.83;;
3867;SDS011;1949;48.152;11.528;2023-05-29T03:22:17;15.00;;;6.70;;
3867;SDS011;1949;48.152;11.528;2023-05-29T03:25:03;16.47;;;7.03;;
3867;SDS011;1949;48.152;11.528;2023-05-29T03:27:49;11.10;;;5.53;;
3867;SDS011;1949;48.152;11.528;2023-05-29T03:30:35;14.57;;;6.60;;
3867;SDS011;1949;48.152;11.528;2023-05-29T03:33:07;15.63;;;6.90;;
3867;SDS011;1949;48.152;11.528;2023-05-29T03:35:35;11.50;;;6.40;;
3867;SDS011;1949;48.152;11.528;2023-05-29T03:38:09;11.70;;;6.63;;
3867;SDS011;1949;48.152;11.528;2023-05-29T03:40:55;16.43;;;6.93;;
3867;SDS011;1949;48.152;11.528;2023-05-29T03:43:24;12.90;;;5.80;;
3867;SDS011;1949;48.152;11.528;2023-05-29T03:46:09;25.93;;;7.47;;
3867;SDS011;1949;48.152;11.528;2023-05-29T03:48:42;15.03;;;6.30;;
3867;SDS011;1949;48.152;11.528;2023-05-29T03:51:28;15.23;;;6.27;;
3867;SDS011;1949;48.152;11.528;2023-05-29T03:54:04;17.57;;;5.50;;
3867;SDS011;1949;48.152;11.528;2023-05-29T03:56:48;14.33;;;6.10;;
3867;SDS011;1949;48.152;11.528;2023-05-29T03:59:14;20.07;;;6.80;;
3867;SDS011;1949;48.152;11.528;2023-05-29T04:01:41;11.70;;;6.00;;
3867;SDS011;1949;48.152;11.528;2023-05-29T04:04:08;12.43;;;6.60;;
3867;SDS011;1949;48.152;11.528;2023-05-29T04:06:53;15.20;;;5.40;;
3867;SDS011;1949;48.152;11.528;2023-05-29T04:09:40;10.43;;;6.10;;
3867;SDS011;1949;48.152;11.528;2023-05-29T04:12:12;9.43;;;4.80;;
3867;SDS011;1949;48.152;11.528;2023-05-29T04:14:56;12.80;;;5.80;;
3867;SDS011;1949;48.152;11.528;2023-05-29T04:17:26;11.87;;;5.50;;
3867;SDS011;1949;48.152;11.528;2023-05-29T04:20:12;10.77;;;5.40;;
3867;SDS011;1949;48.152;11.528;2023-05-29T04:22:58;16.47;;;6.10;;
3867;SDS011;1949;48.152;11.528;2023-05-29T04:25:24;24.90;;;9.57;;
3867;SDS011;1949;48.152;11.528;2023-05-29T04:27:59;26.30;;;11.60;;
3867;SDS011;1949;48.152;11.528;2023-05-29T04:30:47;20.90;;;9.30;;
3867;SDS011;1949;48.152;11.528;2023-05-29T04:33:33;28.40;;;8.83;;
3867;SDS011;1949;48.152;11.528;2023-05-29T04:36:24;26.50;;;13.33;;
3867;SDS011;1949;48.152;11.528;2023-05-29T04:39:10;33.83;;;14.97;;
3867;SDS011;1949;48.152;11.528;2023-05-29T04:41:56;27.90;;;11.87;;
3867;SDS011;1949;48.152;11.528;2023-05-29T04:44:24;28.00;;;15.27;;
3867;SDS011;1949;48.152;11.528;2023-05-29T04:47:11;21.20;;;11.07;;
3867;SDS011;1949;48.152;11.528;2023-05-29T04:49:58;30.03;;;14.17;;
3867;SDS011;1949;48.152;11.528;2023-05-29T04:52:26;52.23;;;23.30;;
3867;SDS011;1949;48.152;11.528;2023-05-29T04:54:59;43.80;;;20.20;;
3867;SDS011;1949;48.152;11.528;2023-05-29T04:57:29;31.67;;;15.40;;
3867;SDS011;1949;48.152;11.528;2023-05-29T05:00:15;27.63;;;14.00;;
3867;SDS011;1949;48.152;11.528;2023-05-29T05:02:52;28.20;;;13.27;;
3867;SDS011;1949;48.152;11.528;2023-05-29T05:05:21;33.67;;;15.93;;
3867;SDS011;1949;48.152;11.528;2023-05-29T05:08:08;27.13;;;13.10;;
3867;SDS011;1949;48.152;11.528;2023-05-29T05:10:53;33.50;;;15.90;;
3867;SDS011;1949;48.152;11.528;2023-05-29T05:13:21;26.07;;;12.67;;
3867;SDS011;1949;48.152;11.528;2023-05-29T05:15:53;20.90;;;10.80;;
3867;SDS011;1949;48.152;11.528;2023-05-29T05:18:40;21.37;;;10.73;;
3867;SDS011;1949;48.152;11.528;2023-05-29T05:21:07;15.83;;;7.27;;
3867;SDS011;1949;48.152;11.528;2023-05-29T05:23:34;21.33;;;9.43;;
3867;SDS011;1949;48.152;11.528;2023-05-29T05:26:19;23.70;;;10.60;;
3867;SDS011;1949;48.152;11.528;2023-05-29T05:29:06;23.37;;;11.37;;
3867;SDS011;1949;48.152;11.528;2023-05-29T05:31:54;38.20;;;16.73;;
3867;SDS011;1949;48.152;11.528;2023-05-29T05:34:29;29.23;;;14.20;;
3867;SDS011;1949;48.152;11.528;2023-05-29T05:36:57;31.53;;;13.77;;
3867;SDS011;1949;48.152;11.528;2023-05-29T05:39:26;22.50;;;10.80;;
3867;SDS011;1949;48.152;11.528;2023-05-29T05:42:09;19.53;;;8.60;;
3867;SDS011;1949;48.152;11.528;2023-05-29T05:44:57;19.20;;;8.10;;
3867;SDS011;1949;48.152;11.528;2023-05-29T05:47:22;16.53;;;7.37;;
3867;SDS011;1949;48.152;11.528;2023-05-29T05:49:49;22.37;;;11.07;;
3867;SDS011;1949;48.152;11.528;2023-05-29T05:52:26;30.33;;;12.07;;
3867;SDS011;1949;48.152;11.528;2023-05-29T05:55:16;35.27;;;16.80;;
3867;SDS011;1949;48.152;11.528;2023-05-29T05:58:02;27.93;;;12.87;;
3867;SDS011;1949;48.152;11.528;2023-05-29T06:03:14;20.90;;;9.17;;
3867;SDS011;1949;48.152;11.528;2023-05-29T06:06:00;17.20;;;7.93;;
3867;SDS011;1949;48.152;11.528;2023-05-29T06:08:46;18.20;;;8.27;;
3867;SDS011;1949;48.152;11.528;2023-05-29T06:11:18;14.60;;;6.40;;
3867;SDS011;1949;48.152;11.528;2023-05-29T06:16:19;22.00;;;6.27;;
3867;SDS011;1949;48.152;11.528;2023-05-29T06:18:46;12.80;;;5.63;;
3867;SDS011;1949;48.152;11.528;2023-05-29T06:21:13;17.80;;;9.10;;
3867;SDS011;1949;48.152;11.528;2023-05-29T06:23:41;17.73;;;6.00;;
3867;SDS011;1949;48.152;11.528;2023-05-29T06:26:27;18.27;;;5.67;;
3867;SDS011;1949;48.152;11.528;2023-05-29T06:29:15;23.40;;;9.70;;
3867;SDS011;1949;48.152;11.528;2023-05-29T06:34:30;13.97;;;7.17;;
3867;SDS011;1949;48.152;11.528;2023-05-29T06:37:16;22.30;;;9.33;;
3867;SDS011;1949;48.152;11.528;2023-05-29T06:39:48;15.47;;;8.27;;
3867;SDS011;1949;48.152;11.528;2023-05-29T06:42:16;19.13;;;8.90;;
3867;SDS011;1949;48.152;11.528;2023-05-29T06:45:02;19.57;;;9.77;;
3867;SDS011;1949;48.152;11.528;2023-05-29T06:47:48;19.80;;;7.87;;
3867;SDS011;1949;48.152;11.528;2023-05-29T06:50:23;25.73;;;11.07;;
3867;SDS011;1949;48.152;11.528;2023-05-29T06:52:53;26.40;;;14.53;;
3867;SDS011;1949;48.152;11.528;2023-05-29T06:55:38;17.00;;;8.60;;
3867;SDS011;1949;48.152;11.528;2023-05-29T06:58:12;19.73;;;9.20;;
3867;SDS011;1949;48.152;11.528;2023-05-29T07:01:01;16.10;;;7.77;;
3867;SDS011;1949;48.152;11.528;2023-05-29T07:03:45;16.13;;;8.10;;
3867;SDS011;1949;48.152;11.528;2023-05-29T07:06:31;10.90;;;6.07;;
3867;SDS011;1949;48.152;11.528;2023-05-29T07:09:18;15.40;;;7.30;;
3867;SDS011;1949;48.152;11.528;2023-05-29T07:11:45;13.13;;;6.53;;
3867;SDS011;1949;48.152;11.528;2023-05-29T07:14:26;15.77;;;6.00;;
3867;SDS011;1949;48.152;11.528;2023-05-29T07:17:12;20.53;;;8.60;;
3867;SDS011;1949;48.152;11.528;2023-05-29T07:19:59;23.43;;;10.50;;
3867;SDS011;1949;48.152;11.528;2023-05-29T07:22:26;19.57;;;8.87;;
3867;SDS011;1949;48.152;11.528;2023-05-29T07:25:11;15.80;;;8.10;;
3867;SDS011;1949;48.152;11.528;2023-05-29T07:27:57;13.57;;;6.60;;
3867;SDS011;1949;48.152;11.528;2023-05-29T07:30:43;11.07;;;4.40;;
3867;SDS011;1949;48.152;11.528;2023-05-29T07:33:29;13.90;;;5.30;;
3867;SDS011;1949;48.152;11.528;2023-05-29T07:35:58;17.40;;;5.10;;
3867;SDS011;1949;48.152;11.528;2023-05-29T07:38:43;9.53;;;4.70;;
3867;SDS011;1949;48.152;11.528;2023-05-29T07:41:29;9.07;;;3.90;;
3867;SDS011;1949;48.152;11.528;2023-05-29T07:44:02;12.23;;;5.60;;
3867;SDS011;1949;48.152;11.528;2023-05-29T07:46:46;14.67;;;6.20;;
3867;SDS011;1949;48.152;11.528;2023-05-29T07:49:14;13.60;;;6.80;;
3867;SDS011;1949;48.152;11.528;2023-05-29T07:51:44;32.00;;;15.40;;
3867;SDS011;1949;48.152;11.528;2023-05-29T07:54:30;23.50;;;11.17;;
3867;SDS011;1949;48.152;11.528;2023-05-29T07:57:00;26.83;;;8.97;;
3867;SDS011;1949;48.152;11.528;2023-05-29T07:59:47;13.83;;;6.67;;
3867;SDS011;1949;48.152;11.528;2023-05-29T08:02:24;43.30;;;19.10;;
3867;SDS011;1949;48.152;11.528;2023-05-29T08:05:12;97.53;;;45.17;;
3867;SDS011;1949;48.152;11.528;2023-05-29T08:07:38;79.37;;;35.80;;
3867;SDS011;1949;48.152;11.528;2023-05-29T08:10:05;25.20;;;11.67;;
3867;SDS011;1949;48.152;11.528;2023-05-29T08:12:35;58.70;;;26.37;;
3867;SDS011;1949;48.152;11.528;2023-05-29T08:15:03;98.80;;;43.43;;
3867;SDS011;1949;48.152;11.528;2023-05-29T08:17:29;28.00;;;14.00;;
3867;SDS011;1949;48.152;11.528;2023-05-29T08:19:58;36.83;;;17.40;;
3867;SDS011;1949;48.152;11.528;2023-05-29T08:22:27;23.00;;;10.57;;
3867;SDS011;1949;48.152;11.528;2023-05-29T08:24:55;11.70;;;5.90;;
3867;SDS011;1949;48.152;11.528;2023-05-29T08:27:20;16.67;;;7.40;;
3867;SDS011;1949;48.152;11.528;2023-05-29T08:29:46;12.93;;;6.07;;
3867;SDS011;1949;48.152;11.528;2023-05-29T08:32:13;13.13;;;5.97;;
3867;SDS011;1949;48.152;11.528;2023-05-29T08:34:39;11.57;;;6.20;;
3867;SDS011;1949;48.152;11.528;2023-05-29T08:37:06;8.50;;;4.30;;
3867;SDS011;1949;48.152;11.528;2023-05-29T08:39:32;31.20;;;14.90;;
3867;SDS011;1949;48.152;11.528;2023-05-29T08:44:31;26.40;;;10.87;;
3867;SDS011;1949;48.152;11.528;2023-05-29T08:46:59;14.30;;;6.83;;
3867;SDS011;1949;48.152;11.528;2023-05-29T08:49:40;23.13;;;12.03;;
3867;SDS011;1949;48.152;11.528;2023-05-29T08:52:19;23.73;;;9.17;;
3867;SDS011;1949;48.152;11.528;2023-05-29T08:54:52;19.03;;;7.20;;
3867;SDS011;1949;48.152;11.528;2023-05-29T08:57:19;11.67;;;6.00;;
3867;SDS011;1949;48.152;11.528;2023-05-29T08:59:46;15.67;;;6.60;;
3867;SDS011;1949;48.152;11.528;2023-05-29T09:02:15;14.10;;;7.37;;
3867;SDS011;1949;48.152;11.528;2023-05-29T09:04:42;79.50;;;37.33;;
3867;SDS011;1949;48.152;11.528;2023-05-29T09:07:13;49.53;;;25.07;;
3867;SDS011;1949;48.152;11.528;2023-05-29T09:09:41;19.60;;;10.40;;
3867;SDS011;1949;48.152;11.528;2023-05-29T09:12:09;13.13;;;6.63;;
3867;SDS011;1949;48.152;11.528;2023-05-29T09:14:36;16.43;;;5.13;;
3867;SDS011;1949;48.152;11.528;2023-05-29T09:17:02;21.53;;;6.17;;
3867;SDS011;1949;48.152;11.528;2023-05-29T09:19:29;10.23;;;5.43;;
3867;SDS011;1949;48.152;11.528;2023-05-29T09:24:29;14.30;;;5.63;;
3867;SDS011;1949;48.152;11.528;2023-05-29T09:26:58;16.27;;;6.60;;
3867;SDS011;1949;48.152;11.528;2023-05-29T09:29:30;6.77;;;3.67;;
3867;SDS011;1949;48.152;11.528;2023-05-29T09:31:57;48.37;;;24.40;;
3867;SDS011;1949;48.152;11.528;2023-05-29T09:34:23;104.97;;;44.97;;
3867;SDS011;1949;48.152;11.528;2023-05-29T09:36:51;86.23;;;41.70;;
3867;SDS011;1949;48.152;11.528;2023-05-29T09:39:17;38.73;;;17.83;;
3867;SDS011;1949;48.152;11.528;2023-05-29T09:41:46;20.63;;;8.80;;
3867;SDS011;1949;48.152;11.528;2023-05-29T09:44:13;10.60;;;5.40;;
3867;SDS011;1949;48.152;11.528;2023-05-29T09:46:40;9.80;;;4.50;;
3867;SDS011;1949;48.152;11.528;2023-05-29T09:49:13;10.33;;;4.50;;
3867;SDS011;1949;48.152;11.528;2023-05-29T09:51:39;12.43;;;4.60;;
3867;SDS011;1949;48.152;11.528;2023-05-29T09:54:16;12.23;;;4.33;;
3867;SDS011;1949;48.152;11.528;2023-05-29T09:56:44;7.70;;;3.87;;
3867;SDS011;1949;48.152;11.528;2023-05-29T09:59:13;15.67;;;4.13;;
3867;SDS011;1949;48.152;11.528;2023-05-29T10:01:40;9.13;;;3.90;;
3867;SDS011;1949;48.152;11.528;2023-05-29T10:04:07;8.23;;;3.90;;
3867;SDS011;1949;48.152;11.528;2023-05-29T10:06:35;12.33;;;6.40;;
3867;SDS011;1949;48.152;11.528;2023-05-29T10:09:08;135.03;;;68.23;;
3867;SDS011;1949;48.152;11.528;2023-05-29T10:11:37;55.87;;;27.17;;
3867;SDS011;1949;48.152;11.528;2023-05-29T10:14:06;32.07;;;16.77;;
3867;SDS011;1949;48.152;11.528;2023-05-29T10:16:40;18.60;;;9.40;;
3867;SDS011;1949;48.152;11.528;2023-05-29T10:19:11;12.80;;;5.70;;
3867;SDS011;1949;48.152;11.528;2023-05-29T10:21:40;14.77;;;6.50;;
3867;SDS011;1949;48.152;11.528;2023-05-29T10:24:07;9.63;;;4.90;;
3867;SDS011;1949;48.152;11.528;2023-05-29T10:26:36;135.13;;;53.00;;
3867;SDS011;1949;48.152;11.528;2023-05-29T10:32:21;34.60;;;17.67;;
3867;SDS011;1949;48.152;11.528;2023-05-29T10:40:35;10.83;;;5.13;;
3867;SDS011;1949;48.152;11.528;2023-05-29T10:43:03;13.10;;;4.70;;
3867;SDS011;1949;48.152;11.528;2023-05-29T10:50:43;5.03;;;3.13;;
3867;SDS011;1949;48.152;11.528;2023-05-29T10:53:14;77.17;;;35.00;;
3867;SDS011;1949;48.152;11.528;2023-05-29T10:55:43;55.70;;;27.00;;
3867;SDS011;1949;48.152;11.528;2023-05-29T10:58:12;26.20;;;13.10;;
3867;SDS011;1949;48.152;11.528;2023-05-29T11:00:46;20.67;;;10.20;;
3867;SDS011;1949;48.152;11.528;2023-05-29T11:03:17;16.03;;;8.23;;
3867;SDS011;1949;48.152;11.528;2023-05-29T11:06:02;13.10;;;6.30;;
3867;SDS011;1949;48.152;11.528;2023-05-29T11:08:42;19.43;;;7.77;;
3867;SDS011;1949;48.152;11.528;2023-05-29T11:11:12;15.10;;;4.53;;
3867;SDS011;1949;48.152;11.528;2023-05-29T11:13:56;10.27;;;4.57;;
3867;SDS011;1949;48.152;11.528;2023-05-29T11:18:58;7.17;;;3.93;;
3867;SDS011;1949;48.152;11.528;2023-05-29T11:24:20;48.40;;;20.73;;
3867;SDS011;1949;48.152;11.528;2023-05-29T11:29:25;24.43;;;11.90;;
3867;SDS011;1949;48.152;11.528;2023-05-29T11:32:02;22.53;;;10.20;;
3867;SDS011;1949;48.152;11.528;2023-05-29T11:34:30;24.67;;;11.97;;
3867;SDS011;1949;48.152;11.528;2023-05-29T11:37:03;35.20;;;13.80;;
3867;SDS011;1949;48.152;11.528;2023-05-29T11:42:06;81.67;;;36.40;;
3867;SDS011;1949;48.152;11.528;2023-05-29T11:44:32;33.70;;;16.20;;
3867;SDS011;1949;48.152;11.528;2023-05-29T11:47:02;29.07;;;13.87;;
3867;SDS011;1949;48.152;11.528;2023-05-29T11:49:29;32.63;;;14.70;;
3867;SDS011;1949;48.152;11.528;2023-05-29T11:52:09;9.73;;;4.90;;
3867;SDS011;1949;48.152;11.528;2023-05-29T11:54:39;9.17;;;4.73;;
3867;SDS011;1949;48.152;11.528;2023-05-29T11:57:16;9.63;;;4.67;;
3867;SDS011;1949;48.152;11.528;2023-05-29T11:59:44;10.00;;;5.63;;
3867;SDS011;1949;48.152;11.528;2023-05-29T12:02:10;10.93;;;5.10;;
3867;SDS011;1949;48.152;11.528;2023-05-29T12:04:38;8.30;;;4.13;;
3867;SDS011;1949;48.152;11.528;2023-05-29T12:07:19;10.30;;;4.00;;
3867;SDS011;1949;48.152;11.528;2023-05-29T12:09:47;9.27;;;4.90;;
3867;SDS011;1949;48.152;11.528;2023-05-29T12:12:18;11.03;;;4.27;;
3867;SDS011;1949;48.152;11.528;2023-05-29T12:14:44;6.97;;;4.23;;
3867;SDS011;1949;48.152;11.528;2023-05-29T12:17:15;7.50;;;3.23;;
3867;SDS011;1949;48.152;11.528;2023-05-29T12:19:41;5.80;;;3.20;;
3867;SDS011;1949;48.152;11.528;2023-05-29T12:22:07;13.33;;;5.40;;
3867;SDS011;1949;48.152;11.528;2023-05-29T12:27:05;7.13;;;3.40;;
3867;SDS011;1949;48.152;11.528;2023-05-29T12:29:36;9.07;;;4.80;;
3867;SDS011;1949;48.152;11.528;2023-05-29T12:32:02;7.80;;;3.73;;
3867;SDS011;1949;48.152;11.528;2023-05-29T12:34:33;12.47;;;5.00;;
3867;SDS011;1949;48.152;11.528;2023-05-29T12:37:06;6.87;;;3.90;;
3867;SDS011;1949;48.152;11.528;2023-05-29T12:39:35;8.30;;;3.70;;
3867;SDS011;1949;48.152;11.528;2023-05-29T12:42:01;14.17;;;4.93;;
3867;SDS011;1949;48.152;11.528;2023-05-29T12:44:27;5.03;;;3.50;;
3867;SDS011;1949;48.152;11.528;2023-05-29T12:46:56;8.97;;;4.03;;
3867;SDS011;1949;48.152;11.528;2023-05-29T12:49:22;8.43;;;5.20;;
3867;SDS011;1949;48.152;11.528;2023-05-29T12:51:50;5.13;;;2.83;;
3867;SDS011;1949;48.152;11.528;2023-05-29T12:54:17;13.17;;;2.90;;
3867;SDS011;1949;48.152;11.528;2023-05-29T12:56:44;11.63;;;3.97;;
3867;SDS011;1949;48.152;11.528;2023-05-29T12:59:11;8.83;;;3.23;;
3867;SDS011;1949;48.152;11.528;2023-05-29T13:01:37;7.63;;;4.10;;
3867;SDS011;1949;48.152;11.528;2023-05-29T13:04:04;5.03;;;3.10;;
3867;SDS011;1949;48.152;11.528;2023-05-29T13:06:32;6.30;;;3.37;;
3867;SDS011;1949;48.152;11.528;2023-05-29T13:09:02;7.33;;;3.93;;
3867;SDS011;1949;48.152;11.528;2023-05-29T13:11:28;8.33;;;3.60;;
3867;SDS011;1949;48.152;11.528;2023-05-29T13:13:54;5.60;;;3.30;;
3867;SDS011;1949;48.152;11.528;2023-05-29T13:16:21;7.53;;;3.90;;
3867;SDS011;1949;48.152;11.528;2023-05-29T13:18:47;6.47;;;3.80;;
3867;SDS011;1949;48.152;11.528;2023-05-29T13:21:12;7.20;;;3.50;;
3867;SDS011;1949;48.152;11.528;2023-05-29T13:23:39;5.63;;;3.60;;
3867;SDS011;1949;48.152;11.528;2023-05-29T13:26:05;4.50;;;2.90;;
3867;SDS011;1949;48.152;11.528;2023-05-29T13:28:32;7.83;;;3.53;;
3867;SDS011;1949;48.152;11.528;2023-05-29T13:30:58;11.77;;;3.60;;
3867;SDS011;1949;48.152;11.528;2023-05-29T13:33:24;7.33;;;2.73;;
3867;SDS011;1949;48.152;11.528;2023-05-29T13:35:50;6.63;;;3.23;;
3867;SDS011;1949;48.152;11.528;2023-05-29T13:38:15;6.43;;;3.80;;
3867;SDS011;1949;48.152;11.528;2023-05-29T13:40:41;9.00;;;4.10;;
3867;SDS011;1949;48.152;11.528;2023-05-29T13:43:07;9.20;;;3.90;;
3867;SDS011;1949;48.152;11.528;2023-05-29T13:45:32;7.30;;;3.80;;
3867;SDS011;1949;48.152;11.528;2023-05-29T13:47:58;8.80;;;4.50;;
3867;SDS011;1949;48.152;11.528;2023-05-29T13:50:25;8.37;;;3.37;;
3867;SDS011;1949;48.152;11.528;2023-05-29T13:52:57;6.60;;;3.37;;
3867;SDS011;1949;48.152;11.528;2023-05-29T13:55:24;6.13;;;3.07;;
3867;SDS011;1949;48.152;11.528;2023-05-29T13:57:51;5.43;;;3.50;;
3867;SDS011;1949;48.152;11.528;2023-05-29T14:00:18;4.67;;;3.20;;
3867;SDS011;1949;48.152;11.528;2023-05-29T14:02:43;6.97;;;3.83;;
3867;SDS011;1949;48.152;11.528;2023-05-29T14:05:10;7.40;;;3.57;;
3867;SDS011;1949;48.152;11.528;2023-05-29T14:07:37;7.30;;;3.90;;
3867;SDS011;1949;48.152;11.528;2023-05-29T14:10:03;6.20;;;3.27;;
3867;SDS011;1949;48.152;11.528;2023-05-29T14:12:29;8.77;;;4.10;;
3867;SDS011;1949;48.152;11.528;2023-05-29T14:17:28;10.03;;;3.37;;
3867;SDS011;1949;48.152;11.528;2023-05-29T14:19:54;5.27;;;3.17;;
3867;SDS011;1949;48.152;11.528;2023-05-29T14:22:21;4.73;;;2.83;;
3867;SDS011;1949;48.152;11.528;2023-05-29T14:24:48;5.47;;;3.40;;
3867;SDS011;1949;48.152;11.528;2023-05-29T14:27:16;7.47;;;3.80;;
3867;SDS011;1949;48.152;11.528;2023-05-29T14:29:42;6.00;;;3.60;;
3867;SDS011;1949;48.152;11.528;2023-05-29T14:32:09;5.60;;;3.30;;
3867;SDS011;1949;48.152;11.528;2023-05-29T14:34:36;9.67;;;3.40;;
3867;SDS011;1949;48.152;11.528;2023-05-29T14:37:01;6.40;;;4.23;;
3867;SDS011;1949;48.152;11.528;2023-05-29T14:39:28;6.17;;;2.73;;
3867;SDS011;1949;48.152;11.528;2023-05-29T14:41:53;7.10;;;3.80;;
3867;SDS011;1949;48.152;11.528;2023-05-29T14:44:24;5.00;;;3.27;;
3867;SDS011;1949;48.152;11.528;2023-05-29T14:46:52;25.07;;;11.97;;
3867;SDS011;1949;48.152;11.528;2023-05-29T14:49:18;51.77;;;22.00;;
3867;SDS011;1949;48.152;11.528;2023-05-29T14:51:45;168.93;;;84.53;;
3867;SDS011;1949;48.152;11.528;2023-05-29T14:54:11;68.50;;;32.37;;
3867;SDS011;1949;48.152;11.528;2023-05-29T14:56:39;92.33;;;47.63;;
3867;SDS011;1949;48.152;11.528;2023-05-29T14:59:05;57.40;;;29.97;;
3867;SDS011;1949;48.152;11.528;2023-05-29T15:01:32;83.43;;;37.03;;
3867;SDS011;1949;48.152;11.528;2023-05-29T15:03:59;102.73;;;55.33;;
3867;SDS011;1949;48.152;11.528;2023-05-29T15:06:25;78.40;;;42.00;;
3867;SDS011;1949;48.152;11.528;2023-05-29T15:08:50;112.17;;;59.40;;
3867;SDS011;1949;48.152;11.528;2023-05-29T15:11:16;63.07;;;33.63;;
3867;SDS011;1949;48.152;11.528;2023-05-29T15:16:36;74.77;;;41.57;;
3867;SDS011;1949;48.152;11.528;2023-05-29T15:19:02;54.87;;;31.57;;
3867;SDS011;1949;48.152;11.528;2023-05-29T15:21:36;43.17;;;24.00;;
3867;SDS011;1949;48.152;11.528;2023-05-29T15:24:13;34.83;;;20.37;;
3867;SDS011;1949;48.152;11.528;2023-05-29T15:29:08;114.87;;;62.67;;
3867;SDS011;1949;48.152;11.528;2023-05-29T15:31:34;101.23;;;58.40;;
3867;SDS011;1949;48.152;11.528;2023-05-29T15:33:59;63.83;;;34.90;;
3867;SDS011;1949;48.152;11.528;2023-05-29T15:36:25;38.97;;;20.73;;
3867;SDS011;1949;48.152;11.528;2023-05-29T15:38:52;34.47;;;19.10;;
3867;SDS011;1949;48.152;11.528;2023-05-29T15:41:18;86.07;;;47.20;;
3867;SDS011;1949;48.152;11.528;2023-05-29T15:43:44;123.07;;;67.23;;
3867;SDS011;1949;48.152;11.528;2023-05-29T15:46:10;116.63;;;60.93;;
3867;SDS011;1949;48.152;11.528;2023-05-29T15:48:36;74.50;;;39.43;;
3867;SDS011;1949;48.152;11.528;2023-05-29T15:51:06;39.13;;;22.60;;
3867;SDS011;1949;48.152;11.528;2023-05-29T15:53:33;28.87;;;15.67;;
3867;SDS011;1949;48.152;11.528;2023-05-29T15:56:00;23.83;;;12.10;;
3867;SDS011;1949;48.152;11.528;2023-05-29T15:58:25;35.60;;;18.77;;
3867;SDS011;1949;48.152;11.528;2023-05-29T16:00:52;32.17;;;17.33;;
3867;SDS011;1949;48.152;11.528;2023-05-29T16:03:18;22.90;;;12.87;;
3867;SDS011;1949;48.152;11.528;2023-05-29T16:05:43;42.40;;;20.80;;
3867;SDS011;1949;48.152;11.528;2023-05-29T16:08:09;29.00;;;14.87;;
3867;SDS011;1949;48.152;11.528;2023-05-29T16:10:35;43.60;;;23.13;;
3867;SDS011;1949;48.152;11.528;2023-05-29T16:13:02;104.17;;;49.07;;